Time;durP1;ratioP1;P1;durP2;ratioP2;P2;SDS_P1;SDS_P2;PMS_P1;PMS_P2;Temp;Humidity;BMP_temperature;BMP_pressure;BME280_temperature;BME280_humidity;BME280_pressure;Samples;Min_cycle;Max_cycle;Signal;HPM_P1;HPM_P2
2023/04/22 00:00:34;;;;;;;20.63;12.52;;;11.50;99.90;;;;;;5073237;28;20048;-62
2023/04/22 00:03:02;;;;;;;16.88;11.98;;;11.50;99.90;;;;;;5046967;28;20044;-62
2023/04/22 00:05:28;;;;;;;18.20;12.70;;;11.50;99.90;;;;;;5068775;28;20043;-62
2023/04/22 00:07:54;;;;;;;18.85;13.07;;;11.40;99.90;;;;;;5050675;28;20093;-64
2023/04/22 00:10:20;;;;;;;18.65;13.10;;;11.40;99.90;;;;;;5077078;28;20040;-62
2023/04/22 00:12:46;;;;;;;19.45;14.07;;;11.40;99.90;;;;;;5065358;28;20476;-62
2023/04/22 00:15:12;;;;;;;20.02;13.70;;;11.30;99.90;;;;;;5061855;28;20098;-62
2023/04/22 00:17:39;;;;;;;18.95;13.35;;;11.20;99.90;;;;;;5072730;28;20036;-62
2023/04/22 00:20:06;;;;;;;17.88;13.18;;;11.20;99.90;;;;;;5080513;28;20134;-61
2023/04/22 00:22:32;;;;;;;21.30;13.82;;;11.20;99.90;;;;;;5063379;28;20048;-61
2023/04/22 00:24:58;;;;;;;20.25;14.15;;;11.10;99.90;;;;;;5082744;28;20591;-63
2023/04/22 00:27:24;;;;;;;23.20;15.02;;;11.00;99.90;;;;;;5085073;28;20511;-61
2023/04/22 00:29:50;;;;;;;19.13;12.70;;;11.00;99.90;;;;;;5083318;28;20075;-62
2023/04/22 00:32:16;;;;;;;20.45;13.57;;;11.00;99.90;;;;;;5072445;28;20503;-61
2023/04/22 00:34:41;;;;;;;22.60;14.35;;;10.90;99.90;;;;;;5063569;28;20051;-62
2023/04/22 00:37:07;;;;;;;17.60;13.65;;;10.90;99.90;;;;;;5046506;28;20581;-61
2023/04/22 00:39:34;;;;;;;23.65;15.50;;;10.80;99.90;;;;;;5062986;28;20040;-62
2023/04/22 00:42:00;;;;;;;22.63;16.85;;;10.70;99.90;;;;;;5046818;28;20059;-62
2023/04/22 00:44:27;;;;;;;22.85;16.10;;;10.60;99.90;;;;;;5062844;28;20045;-61
2023/04/22 00:46:53;;;;;;;22.17;16.20;;;10.50;99.90;;;;;;5046901;28;20365;-60
2023/04/22 00:49:19;;;;;;;24.35;17.13;;;10.50;99.90;;;;;;5064798;28;20475;-62
2023/04/22 00:51:45;;;;;;;24.23;16.65;;;10.50;99.90;;;;;;5030165;28;20447;-62
2023/04/22 00:54:11;;;;;;;26.75;17.52;;;10.40;99.90;;;;;;5073996;28;20044;-63
2023/04/22 00:56:38;;;;;;;25.88;17.48;;;10.40;99.90;;;;;;5065267;28;20044;-62
2023/04/22 00:59:03;;;;;;;27.88;19.10;;;10.30;99.90;;;;;;5063013;28;20127;-61
2023/04/22 01:01:30;;;;;;;26.38;17.65;;;10.30;99.90;;;;;;5066657;28;20048;-61
2023/04/22 01:03:56;;;;;;;24.77;17.42;;;10.20;99.90;;;;;;5033389;28;20074;-63
2023/04/22 01:06:23;;;;;;;27.90;18.30;;;10.10;99.90;;;;;;5080024;28;20040;-62
2023/04/22 01:08:49;;;;;;;29.05;18.88;;;10.10;99.90;;;;;;5066196;28;20059;-62
2023/04/22 01:11:15;;;;;;;25.60;18.63;;;10.10;99.90;;;;;;5067949;28;20040;-61
2023/04/22 01:13:41;;;;;;;29.35;19.15;;;10.00;99.90;;;;;;5066470;28;20510;-61
2023/04/22 01:16:08;;;;;;;26.50;18.33;;;10.00;99.90;;;;;;5066394;28;20454;-62
2023/04/22 01:18:35;;;;;;;30.83;20.10;;;10.00;99.90;;;;;;5050044;28;20105;-60
2023/04/22 01:21:02;;;;;;;29.77;20.73;;;9.90;99.90;;;;;;5065863;28;20127;-61
2023/04/22 01:23:28;;;;;;;33.92;23.08;;;9.90;99.90;;;;;;5066409;28;20041;-61
2023/04/22 01:25:55;;;;;;;29.65;20.95;;;10.00;99.90;;;;;;5077452;28;20082;-62
2023/04/22 01:28:22;;;;;;;27.90;20.40;;;10.00;99.90;;;;;;5088058;28;20063;-64
2023/04/22 01:30:48;;;;;;;28.17;20.05;;;10.00;99.90;;;;;;5086804;28;20093;-62
2023/04/22 01:33:15;;;;;;;27.08;18.60;;;10.00;99.90;;;;;;5087401;28;20713;-61
2023/04/22 01:35:42;;;;;;;29.40;18.65;;;10.00;99.90;;;;;;5080179;28;20128;-62
2023/04/22 01:38:10;;;;;;;27.48;19.02;;;10.00;99.90;;;;;;5067408;28;20045;-62
2023/04/22 01:40:39;;;;;;;25.42;18.77;;;10.10;99.90;;;;;;5048920;28;20040;-62
2023/04/22 01:43:10;;;;;;;29.75;20.15;;;10.00;99.90;;;;;;5065934;28;20078;-61
2023/04/22 01:45:36;;;;;;;26.92;18.52;;;10.00;99.90;;;;;;5067028;28;20040;-61
2023/04/22 01:48:05;;;;;;;29.75;19.42;;;10.00;99.90;;;;;;5067074;28;20064;-61
2023/04/22 01:50:32;;;;;;;28.48;20.27;;;10.00;99.90;;;;;;5071770;28;20093;-61
2023/04/22 01:52:58;;;;;;;25.80;17.58;;;10.00;99.90;;;;;;5087409;28;20480;-62
2023/04/22 01:55:24;;;;;;;29.25;18.50;;;9.90;99.90;;;;;;5077391;28;20052;-62
2023/04/22 01:57:51;;;;;;;27.80;18.23;;;9.80;99.90;;;;;;5066877;28;20369;-61
2023/04/22 02:00:17;;;;;;;27.67;19.08;;;9.70;99.90;;;;;;5065164;28;20075;-62
2023/04/22 02:02:43;;;;;;;24.95;17.23;;;9.60;99.90;;;;;;5048892;28;20800;-61
2023/04/22 02:05:09;;;;;;;32.80;19.88;;;9.50;99.90;;;;;;5078614;28;20138;-61
2023/04/22 02:07:37;;;;;;;28.65;19.25;;;9.50;99.90;;;;;;5065377;28;20198;-62
2023/04/22 02:10:04;;;;;;;23.20;17.20;;;9.40;99.90;;;;;;5079920;28;20039;-62
2023/04/22 02:12:31;;;;;;;30.02;19.30;;;9.40;99.90;;;;;;5064680;28;20046;-61
2023/04/22 02:14:57;;;;;;;28.65;19.63;;;9.40;99.90;;;;;;5066679;28;20048;-61
2023/04/22 02:17:23;;;;;;;29.35;18.65;;;9.30;99.90;;;;;;5065446;28;20480;-62
2023/04/22 02:19:48;;;;;;;29.98;19.00;;;9.20;99.90;;;;;;5048330;28;20071;-63
2023/04/22 02:22:15;;;;;;;29.98;19.25;;;9.20;99.90;;;;;;5048252;28;20048;-62
2023/04/22 02:24:42;;;;;;;26.75;18.30;;;9.10;99.90;;;;;;5081508;28;20041;-62
2023/04/22 02:27:08;;;;;;;26.63;17.05;;;9.00;99.90;;;;;;5064979;28;20135;-62
2023/04/22 02:29:34;;;;;;;26.98;18.48;;;8.90;99.90;;;;;;5066047;28;20506;-62
2023/04/22 02:32:00;;;;;;;29.33;19.10;;;8.80;99.90;;;;;;5048386;28;20541;-62
2023/04/22 02:34:26;;;;;;;32.75;22.95;;;8.80;99.90;;;;;;5064960;28;20044;-62
2023/04/22 02:36:52;;;;;;;32.92;22.60;;;8.70;99.90;;;;;;5064696;28;20059;-60
2023/04/22 02:39:18;;;;;;;28.30;20.88;;;8.80;99.90;;;;;;5064439;28;20044;-62
2023/04/22 02:41:44;;;;;;;28.38;21.10;;;8.80;99.90;;;;;;5064536;28;20050;-61
2023/04/22 02:44:09;;;;;;;32.00;20.90;;;8.80;99.90;;;;;;5065664;28;20079;-62
2023/04/22 02:46:35;;;;;;;30.15;21.52;;;8.80;99.90;;;;;;5064524;28;20047;-62
2023/04/22 02:49:01;;;;;;;35.40;21.48;;;8.80;99.90;;;;;;5064204;28;20124;-62
2023/04/22 02:51:27;;;;;;;31.40;22.42;;;8.80;99.90;;;;;;5064536;28;20033;-62
2023/04/22 02:53:52;;;;;;;34.95;23.13;;;8.80;99.90;;;;;;5064466;28;20428;-62
2023/04/22 02:56:20;;;;;;;35.42;22.38;;;8.70;99.90;;;;;;5064369;28;20063;-62
2023/04/22 02:58:46;;;;;;;34.22;22.40;;;8.70;99.90;;;;;;5047947;28;20060;-62
2023/04/22 03:01:11;;;;;;;28.70;19.60;;;8.70;99.90;;;;;;5065536;28;20487;-61
2023/04/22 03:03:37;;;;;;;29.75;19.98;;;8.70;99.90;;;;;;5064630;28;20071;-60
2023/04/22 03:06:03;;;;;;;27.23;19.98;;;8.70;99.90;;;;;;5047854;28;20601;-62
2023/04/22 03:08:29;;;;;;;30.23;20.90;;;8.70;99.90;;;;;;5064379;28;20040;-60
2023/04/22 03:10:55;;;;;;;33.65;19.98;;;8.60;99.90;;;;;;5047308;28;20043;-61
2023/04/22 03:13:21;;;;;;;33.85;21.05;;;8.50;99.90;;;;;;5064380;28;20044;-62
2023/04/22 03:15:46;;;;;;;33.78;21.08;;;8.40;99.90;;;;;;5064109;28;20351;-62
2023/04/22 03:18:12;;;;;;;29.98;21.67;;;8.40;99.90;;;;;;5065758;28;20045;-63
2023/04/22 03:20:38;;;;;;;31.77;22.00;;;8.40;99.90;;;;;;5065571;28;20040;-62
2023/04/22 03:23:05;;;;;;;25.58;18.23;;;8.40;99.90;;;;;;5063863;28;20507;-62
2023/04/22 03:25:31;;;;;;;37.85;24.10;;;8.40;99.90;;;;;;5047565;28;20040;-61
2023/04/22 03:27:57;;;;;;;41.38;26.02;;;8.30;99.90;;;;;;5064455;28;20032;-61
2023/04/22 03:30:23;;;;;;;33.63;24.27;;;8.30;99.90;;;;;;5065199;28;20036;-61
2023/04/22 03:32:49;;;;;;;34.50;24.02;;;8.30;99.90;;;;;;5064032;28;20048;-61
2023/04/22 03:35:15;;;;;;;50.83;28.42;;;8.30;99.90;;;;;;5065230;28;20658;-61
2023/04/22 03:37:41;;;;;;;39.83;25.17;;;8.30;99.90;;;;;;5063995;28;20041;-61
2023/04/22 03:40:08;;;;;;;36.90;21.77;;;8.30;99.90;;;;;;5047263;28;20043;-61
2023/04/22 03:42:34;;;;;;;32.80;22.15;;;8.30;99.90;;;;;;5063725;28;20056;-62
2023/04/22 03:45:00;;;;;;;25.15;16.25;;;8.20;99.90;;;;;;5063551;28;20036;-62
2023/04/22 03:47:26;;;;;;;36.28;21.38;;;8.20;99.90;;;;;;5063943;28;20119;-61
2023/04/22 03:49:51;;;;;;;32.65;20.30;;;8.10;99.90;;;;;;5047408;28;20040;-63
2023/04/22 03:52:17;;;;;;;37.50;19.40;;;8.10;99.90;;;;;;5047211;28;20211;-61
2023/04/22 03:54:43;;;;;;;137.10;13.70;;;8.10;99.90;;;;;;5063601;28;20036;-62
2023/04/22 03:57:09;;;;;;;200.90;17.52;;;8.10;99.90;;;;;;5046753;28;20044;-62
2023/04/22 03:59:35;;;;;;;248.57;18.75;;;8.00;99.90;;;;;;5047047;28;20512;-62
2023/04/22 04:02:00;;;;;;;213.05;14.93;;;7.80;99.90;;;;;;5065040;28;20400;-62
2023/04/22 04:04:28;;;;;;;214.88;15.88;;;7.70;99.90;;;;;;5046956;28;20112;-61
2023/04/22 04:06:55;;;;;;;236.85;15.98;;;7.60;99.90;;;;;;5063749;28;20219;-61
2023/04/22 04:09:21;;;;;;;128.77;11.23;;;7.50;99.90;;;;;;5064958;28;20434;-61
2023/04/22 04:11:46;;;;;;;264.88;17.75;;;7.40;99.90;;;;;;5047031;28;20051;-60
2023/04/22 04:14:12;;;;;;;304.65;19.08;;;7.30;99.90;;;;;;5063671;28;20068;-62
2023/04/22 04:16:38;;;;;;;197.60;16.92;;;7.30;99.90;;;;;;5063751;28;20047;-63
2023/04/22 04:19:05;;;;;;;271.20;22.33;;;7.20;99.90;;;;;;5064773;28;20040;-61
2023/04/22 04:21:32;;;;;;;216.32;20.55;;;7.20;99.90;;;;;;5063584;28;20056;-61
2023/04/22 04:23:58;;;;;;;298.48;25.13;;;7.20;99.90;;;;;;5046864;28;20045;-61
2023/04/22 04:26:26;;;;;;;69.72;18.92;;;7.10;99.90;;;;;;5061751;28;20097;-62
2023/04/22 04:28:52;;;;;;;34.72;21.30;;;7.10;99.90;;;;;;5033690;28;20032;-62
2023/04/22 04:31:18;;;;;;;46.03;27.25;;;7.10;99.90;;;;;;5083721;28;20044;-64
2023/04/22 04:33:45;;;;;;;47.63;29.10;;;7.20;99.90;;;;;;5058903;28;20523;-61
2023/04/22 04:36:11;;;;;;;35.50;23.02;;;7.20;99.90;;;;;;5068581;28;20059;-61
2023/04/22 04:38:37;;;;;;;35.35;23.05;;;7.30;99.90;;;;;;5068519;28;20396;-62
2023/04/22 04:41:04;;;;;;;43.00;27.17;;;7.30;99.90;;;;;;5050228;28;20048;-62
2023/04/22 04:43:30;;;;;;;49.60;31.58;;;7.40;99.90;;;;;;5058529;28;20586;-63
2023/04/22 04:45:56;;;;;;;45.50;29.98;;;7.50;99.90;;;;;;5086789;28;20123;-60
2023/04/22 04:48:25;;;;;;;40.45;26.58;;;7.50;99.90;;;;;;5082797;28;20136;-62
2023/04/22 04:50:52;;;;;;;39.83;24.10;;;7.70;99.90;;;;;;5074838;28;20051;-62
2023/04/22 04:53:20;;;;;;;34.88;22.38;;;7.80;99.90;;;;;;5083242;28;20036;-61
2023/04/22 04:55:46;;;;;;;32.85;24.45;;;7.80;99.90;;;;;;5072614;28;20236;-62
2023/04/22 04:58:12;;;;;;;29.35;21.75;;;7.90;99.90;;;;;;5066854;28;20056;-62
2023/04/22 05:00:37;;;;;;;30.17;20.65;;;8.10;99.90;;;;;;5049985;28;20032;-61
2023/04/22 05:03:03;;;;;;;31.45;21.92;;;8.10;99.90;;;;;;5066864;28;20048;-61
2023/04/22 05:05:29;;;;;;;33.35;23.02;;;8.10;99.90;;;;;;5067941;28;20040;-61
2023/04/22 05:07:55;;;;;;;43.83;25.35;;;8.10;99.90;;;;;;5068048;28;20097;-61
2023/04/22 05:10:21;;;;;;;35.30;25.98;;;8.10;99.90;;;;;;5066500;28;20040;-61
2023/04/22 05:12:47;;;;;;;36.70;26.35;;;8.20;99.90;;;;;;5066530;28;20051;-64
2023/04/22 05:15:14;;;;;;;36.08;26.67;;;8.30;99.90;;;;;;5049741;28;20044;-61
2023/04/22 05:17:39;;;;;;;36.17;26.38;;;8.30;99.90;;;;;;5067699;28;20637;-62
2023/04/22 05:20:06;;;;;;;34.78;24.95;;;8.40;99.90;;;;;;5049868;28;20056;-61
2023/04/22 05:22:33;;;;;;;34.25;25.10;;;8.40;99.90;;;;;;5086580;28;20204;-60
2023/04/22 05:24:59;;;;;;;33.28;24.50;;;8.50;99.90;;;;;;5065559;28;20041;-62
2023/04/22 05:27:25;;;;;;;32.20;22.67;;;8.50;99.90;;;;;;5049716;28;20525;-61
2023/04/22 05:29:51;;;;;;;30.58;23.20;;;8.60;99.90;;;;;;5049356;28;20404;-62
2023/04/22 05:32:17;;;;;;;28.42;21.90;;;8.60;99.90;;;;;;5067720;28;20036;-62
2023/04/22 05:34:42;;;;;;;30.65;22.73;;;8.70;99.90;;;;;;5066222;28;20040;-61
2023/04/22 05:37:09;;;;;;;34.08;22.83;;;8.80;99.90;;;;;;5065895;28;20447;-62
2023/04/22 05:39:35;;;;;;;31.23;21.58;;;8.80;99.90;;;;;;5067214;28;20057;-61
2023/04/22 05:42:01;;;;;;;29.92;21.70;;;8.80;99.90;;;;;;5069127;28;20411;-61
2023/04/22 05:44:27;;;;;;;28.50;21.60;;;8.90;99.90;;;;;;5087655;28;20115;-61
2023/04/22 05:46:53;;;;;;;29.70;21.75;;;8.90;99.90;;;;;;5074210;28;20076;-62
2023/04/22 05:49:18;;;;;;;30.02;21.05;;;9.00;99.90;;;;;;5065825;28;20478;-62
2023/04/22 05:51:45;;;;;;;27.02;21.00;;;9.10;99.90;;;;;;5063049;28;20047;-63
2023/04/22 05:54:10;;;;;;;33.47;23.00;;;9.20;99.90;;;;;;5086022;28;20040;-62
2023/04/22 05:56:36;;;;;;;28.77;20.85;;;9.20;99.90;;;;;;5073753;28;20544;-62
2023/04/22 05:59:02;;;;;;;26.45;21.52;;;9.30;99.90;;;;;;5072964;28;20071;-61
2023/04/22 06:01:28;;;;;;;25.00;19.00;;;9.40;99.90;;;;;;5076303;28;20338;-62
2023/04/22 06:03:54;;;;;;;25.60;18.65;;;9.50;99.90;;;;;;5050673;28;20078;-62
2023/04/22 06:06:19;;;;;;;25.65;18.60;;;9.60;99.90;;;;;;5077410;28;20521;-61
2023/04/22 06:08:45;;;;;;;26.25;18.63;;;9.60;99.90;;;;;;5074918;28;20119;-62
2023/04/22 06:11:11;;;;;;;29.10;19.52;;;9.70;99.90;;;;;;5075262;28;20142;-62
2023/04/22 06:13:37;;;;;;;28.30;19.00;;;9.80;99.90;;;;;;5075093;28;20043;-62
2023/04/22 06:16:04;;;;;;;25.10;18.85;;;9.80;99.90;;;;;;5071933;28;20049;-61
2023/04/22 06:18:31;;;;;;;27.42;18.92;;;9.90;99.90;;;;;;5065351;28;20044;-63
2023/04/22 06:20:57;;;;;;;26.60;17.23;;;10.00;99.90;;;;;;5065277;28;20043;-62
2023/04/22 06:23:22;;;;;;;26.55;17.63;;;10.10;99.90;;;;;;5065200;28;20044;-63
2023/04/22 06:25:48;;;;;;;24.30;18.48;;;10.20;99.90;;;;;;5048593;28;20107;-62
2023/04/22 06:28:14;;;;;;;20.42;16.73;;;10.30;99.90;;;;;;5065228;28;20037;-62
2023/04/22 06:30:40;;;;;;;24.17;16.55;;;10.30;99.90;;;;;;5064556;28;20190;-63
2023/04/22 06:33:05;;;;;;;26.55;16.90;;;10.40;99.90;;;;;;5074258;28;20062;-65
2023/04/22 06:35:31;;;;;;;24.27;17.73;;;10.50;99.90;;;;;;5080696;28;20037;-62
2023/04/22 06:37:57;;;;;;;22.40;17.65;;;10.60;99.90;;;;;;5066590;28;20044;-62
2023/04/22 06:40:23;;;;;;;19.95;16.63;;;10.80;99.90;;;;;;5056478;28;21187;-61
2023/04/22 06:42:49;;;;;;;22.92;16.85;;;10.90;99.90;;;;;;5056742;28;20142;-62
2023/04/22 06:45:15;;;;;;;21.98;16.30;;;10.90;99.90;;;;;;5075725;28;20068;-61
2023/04/22 06:47:41;;;;;;;22.40;15.63;;;11.00;99.90;;;;;;5073934;28;20440;-62
2023/04/22 06:50:10;;;;;;;22.80;16.23;;;11.10;99.90;;;;;;5074778;28;20046;-61
2023/04/22 06:52:36;;;;;;;20.10;14.90;;;11.10;99.90;;;;;;5064178;28;20051;-62
2023/04/22 06:55:02;;;;;;;20.75;15.98;;;11.20;99.90;;;;;;5065045;28;20040;-62
2023/04/22 06:57:31;;;;;;;22.13;15.82;;;11.20;99.90;;;;;;5080705;28;20060;-64
2023/04/22 06:59:57;;;;;;;22.60;16.13;;;11.30;99.90;;;;;;5081129;28;20090;-63
2023/04/22 07:02:23;;;;;;;18.95;15.27;;;11.40;99.90;;;;;;5081253;28;20375;-64
2023/04/22 07:04:49;;;;;;;20.58;15.30;;;11.40;99.90;;;;;;5065524;28;20136;-65
2023/04/22 07:07:15;;;;;;;18.25;14.60;;;11.50;99.90;;;;;;5065961;28;20650;-63
2023/04/22 07:09:41;;;;;;;20.83;15.38;;;11.60;99.90;;;;;;5047333;28;20510;-64
2023/04/22 07:12:07;;;;;;;19.92;15.02;;;11.60;99.90;;;;;;5048043;28;20300;-63
2023/04/22 07:14:32;;;;;;;18.48;13.40;;;11.70;99.90;;;;;;5047245;28;20075;-63
2023/04/22 07:16:59;;;;;;;21.63;14.65;;;11.80;99.90;;;;;;5047740;28;20124;-63
2023/04/22 07:19:25;;;;;;;19.67;15.07;;;11.80;99.90;;;;;;5065487;28;20115;-64
2023/04/22 07:21:51;;;;;;;21.35;14.77;;;11.90;99.90;;;;;;5047168;28;20047;-64
2023/04/22 07:24:17;;;;;;;20.05;14.55;;;12.10;99.90;;;;;;5047417;28;20040;-65
2023/04/22 07:26:44;;;;;;;18.52;15.00;;;12.20;99.90;;;;;;5047687;28;20037;-64
2023/04/22 07:29:11;;;;;;;18.17;14.68;;;12.30;99.90;;;;;;5053698;28;20301;-63
2023/04/22 07:31:38;;;;;;;18.48;13.50;;;12.40;99.90;;;;;;5064116;28;20045;-64
2023/04/22 07:34:04;;;;;;;16.17;13.63;;;12.50;99.90;;;;;;5047574;28;20849;-63
2023/04/22 07:36:32;;;;;;;20.83;14.25;;;12.60;99.90;;;;;;5047094;28;20454;-64
2023/04/22 07:38:58;;;;;;;19.38;13.88;;;12.80;99.90;;;;;;5047136;28;20036;-65
2023/04/22 07:41:24;;;;;;;18.73;14.13;;;12.90;99.90;;;;;;5055999;28;20032;-64
2023/04/22 07:43:50;;;;;;;18.80;14.25;;;13.00;99.90;;;;;;5077282;28;20033;-64
2023/04/22 07:46:15;;;;;;;17.20;13.75;;;13.20;99.90;;;;;;5073394;28;20075;-64
2023/04/22 07:48:42;;;;;;;20.15;14.45;;;13.30;99.90;;;;;;5072650;28;20036;-67
2023/04/22 07:51:08;;;;;;;18.92;13.93;;;13.40;99.90;;;;;;5063578;28;20033;-65
2023/04/22 07:53:33;;;;;;;19.08;13.85;;;13.50;99.90;;;;;;5081825;28;20150;-64
2023/04/22 07:56:03;;;;;;;19.90;12.95;;;13.70;99.90;;;;;;5069985;28;20053;-64
2023/04/22 07:58:28;;;;;;;18.90;13.55;;;13.90;99.90;;;;;;5037819;28;20055;-63
2023/04/22 08:00:54;;;;;;;17.85;12.60;;;14.10;99.90;;;;;;5083636;28;20044;-63
2023/04/22 08:03:21;;;;;;;21.30;13.05;;;14.30;99.90;;;;;;5067000;28;20114;-63
2023/04/22 08:05:47;;;;;;;17.98;12.57;;;14.40;99.90;;;;;;5078063;28;20551;-65
2023/04/22 08:08:13;;;;;;;16.20;12.93;;;14.50;99.90;;;;;;5071295;28;20122;-64
2023/04/22 08:10:39;;;;;;;17.50;12.93;;;14.40;99.90;;;;;;5076849;28;20128;-63
2023/04/22 08:13:05;;;;;;;18.67;13.23;;;14.50;99.90;;;;;;5076288;28;20083;-64
2023/04/22 08:15:31;;;;;;;17.35;12.02;;;14.60;99.90;;;;;;5075852;28;20044;-65
2023/04/22 08:17:57;;;;;;;19.55;12.15;;;14.80;99.90;;;;;;5061832;28;20079;-65
2023/04/22 08:20:23;;;;;;;16.98;12.25;;;15.00;99.90;;;;;;5064121;28;20036;-63
2023/04/22 08:22:50;;;;;;;14.38;11.82;;;15.20;99.90;;;;;;5075861;28;20033;-62
2023/04/22 08:25:16;;;;;;;16.38;11.73;;;15.40;99.90;;;;;;5070516;28;20040;-63
2023/04/22 08:27:41;;;;;;;16.42;11.32;;;15.50;99.90;;;;;;5051025;28;20535;-63
2023/04/22 08:30:08;;;;;;;14.85;11.95;;;15.70;99.90;;;;;;5055075;28;20304;-64
2023/04/22 08:32:37;;;;;;;13.90;11.10;;;15.80;99.90;;;;;;5070112;28;20036;-63
2023/04/22 08:35:03;;;;;;;13.55;10.60;;;16.20;99.90;;;;;;5070094;28;20559;-63
2023/04/22 08:37:29;;;;;;;14.27;10.57;;;16.50;99.90;;;;;;5075006;28;20056;-62
2023/04/22 08:39:55;;;;;;;14.65;10.65;;;16.80;99.90;;;;;;5066586;28;20071;-61
2023/04/22 08:42:21;;;;;;;14.88;10.43;;;17.10;99.90;;;;;;5050280;28;20052;-62
2023/04/22 08:44:48;;;;;;;13.55;10.18;;;17.50;99.90;;;;;;5068021;28;20123;-63
2023/04/22 08:47:15;;;;;;;14.57;9.98;;;17.90;99.90;;;;;;5066863;28;20045;-62
2023/04/22 08:49:42;;;;;;;13.73;9.57;;;18.20;99.90;;;;;;5066878;28;20048;-61
2023/04/22 08:52:10;;;;;;;11.73;9.10;;;18.80;99.90;;;;;;5050344;28;20106;-63
2023/04/22 08:54:38;;;;;;;11.73;9.10;;;19.50;99.90;;;;;;5049955;28;20044;-62
2023/04/22 08:57:06;;;;;;;14.75;8.88;;;20.10;99.90;;;;;;5067165;28;20041;-65
2023/04/22 08:59:34;;;;;;;11.70;8.80;;;20.60;99.90;;;;;;5066359;28;20106;-63
2023/04/22 09:02:01;;;;;;;11.27;8.10;;;20.80;98.70;;;;;;5050285;28;20041;-64
2023/04/22 09:04:27;;;;;;;11.43;8.73;;;20.80;98.70;;;;;;5049738;28;20040;-63
2023/04/22 09:06:54;;;;;;;17.05;8.85;;;20.70;98.30;;;;;;5069848;28;20032;-63
2023/04/22 09:09:21;;;;;;;12.50;8.95;;;20.60;98.90;;;;;;5086692;28;20036;-63
2023/04/22 09:11:46;;;;;;;11.35;9.23;;;20.40;99.00;;;;;;5052045;28;20043;-63
2023/04/22 09:14:12;;;;;;;11.38;8.65;;;20.60;99.20;;;;;;5049631;28;20036;-62
2023/04/22 09:16:46;;;;;;;11.30;8.05;;;20.80;98.10;;;;;;5049887;28;20049;-63
2023/04/22 09:19:15;;;;;;;11.20;8.23;;;21.00;97.30;;;;;;5049781;28;20094;-63
2023/04/22 09:21:41;;;;;;;10.98;8.70;;;21.10;97.60;;;;;;5049099;28;20135;-62
2023/04/22 09:24:10;;;;;;;12.88;8.27;;;21.30;97.70;;;;;;5066505;28;20639;-62
2023/04/22 09:26:40;;;;;;;10.95;8.88;;;21.40;96.80;;;;;;5049504;28;20044;-62
2023/04/22 09:29:08;;;;;;;12.95;8.45;;;21.60;96.60;;;;;;5060782;28;20510;-62
2023/04/22 09:31:39;;;;;;;13.00;8.23;;;21.90;95.80;;;;;;5069846;28;20097;-62
2023/04/22 09:34:06;;;;;;;11.18;8.38;;;21.70;95.40;;;;;;5069472;28;20329;-65
2023/04/22 09:36:38;;;;;;;11.27;8.45;;;21.40;95.70;;;;;;5079959;28;20048;-61
2023/04/22 09:39:06;;;;;;;13.00;9.38;;;21.20;96.20;;;;;;5066090;28;20056;-63
2023/04/22 09:41:37;;;;;;;11.80;9.20;;;21.10;95.90;;;;;;5066477;28;20093;-64
2023/04/22 09:44:07;;;;;;;11.40;8.55;;;20.90;95.90;;;;;;5065745;28;20052;-63
2023/04/22 09:46:34;;;;;;;13.68;9.00;;;20.70;96.00;;;;;;5065912;28;20036;-64
2023/04/22 09:49:00;;;;;;;10.30;8.40;;;20.70;97.70;;;;;;5049106;28;20052;-61
2023/04/22 09:51:27;;;;;;;12.18;8.82;;;20.90;97.90;;;;;;5065989;28;20040;-62
2023/04/22 09:53:58;;;;;;;10.57;8.05;;;21.10;96.40;;;;;;5065482;28;20045;-61
2023/04/22 09:56:50;;;;;;;11.27;8.10;;;21.00;96.10;;;;;;5049408;28;20067;-63
2023/04/22 09:59:21;;;;;;;11.32;8.63;;;20.90;95.20;;;;;;5065054;28;20106;-62
2023/04/22 10:01:48;;;;;;;15.15;9.18;;;20.80;95.90;;;;;;5065409;28;20072;-64
2023/04/22 10:04:14;;;;;;;11.23;7.65;;;20.90;96.60;;;;;;5071592;28;20040;-63
2023/04/22 10:06:41;;;;;;;12.63;7.88;;;21.10;96.40;;;;;;5086342;28;20521;-66
2023/04/22 10:09:08;;;;;;;11.85;8.70;;;21.30;95.90;;;;;;5068606;28;20043;-61
2023/04/22 10:11:34;;;;;;;14.23;7.93;;;21.40;95.50;;;;;;5069404;28;20063;-64
2023/04/22 10:14:00;;;;;;;11.13;7.97;;;21.40;95.50;;;;;;5065210;28;20157;-65
2023/04/22 10:16:30;;;;;;;11.70;8.10;;;21.40;95.70;;;;;;5048733;28;20048;-65
2023/04/22 10:18:58;;;;;;;10.00;7.55;;;21.40;95.30;;;;;;5048602;28;20051;-63
2023/04/22 10:21:26;;;;;;;10.68;7.57;;;21.30;95.00;;;;;;5065593;28;20044;-63
2023/04/22 10:23:52;;;;;;;12.90;7.30;;;21.30;94.80;;;;;;5048287;28;20055;-63
2023/04/22 10:26:56;;;;;;;10.32;7.18;;;21.30;95.00;;;;;;5048911;28;20508;-63
2023/04/22 10:29:24;;;;;;;9.73;6.97;;;21.40;95.00;;;;;;5061271;28;20051;-63
2023/04/22 10:31:57;;;;;;;9.95;6.50;;;21.60;94.70;;;;;;5084521;28;20044;-63
2023/04/22 10:34:23;;;;;;;12.02;7.60;;;21.80;94.30;;;;;;5085403;28;20106;-62
2023/04/22 10:36:54;;;;;;;10.38;6.40;;;22.00;93.40;;;;;;5077130;28;20047;-63
2023/04/22 10:39:20;;;;;;;10.02;6.40;;;22.10;92.50;;;;;;5048459;28;20040;-62
2023/04/22 10:41:57;;;;;;;10.15;6.40;;;22.30;92.70;;;;;;5048080;28;20518;-63
2023/04/22 10:44:27;;;;;;;8.63;6.45;;;22.50;91.70;;;;;;5064528;28;20143;-65
2023/04/22 10:46:58;;;;;;;10.68;6.28;;;22.60;91.70;;;;;;5048563;28;20075;-64
2023/04/22 10:49:25;;;;;;;10.07;6.15;;;22.70;90.70;;;;;;5048027;28;20483;-62
2023/04/22 10:51:52;;;;;;;8.27;5.95;;;22.80;90.50;;;;;;5048023;28;20391;-64
2023/04/22 10:54:27;;;;;;;9.43;6.40;;;22.90;90.80;;;;;;5047712;28;20036;-64
2023/04/22 10:57:06;;;;;;;11.38;6.55;;;23.00;88.90;;;;;;5048229;28;20470;-67
2023/04/22 10:59:53;;;;;;;11.27;6.72;;;22.90;88.90;;;;;;5064155;28;20511;-63
2023/04/22 11:02:21;;;;;;;9.60;7.30;;;22.90;89.80;;;;;;5047055;28;20048;-64
2023/04/22 11:04:48;;;;;;;11.02;7.22;;;22.80;88.10;;;;;;5064349;28;20041;-64
2023/04/22 11:07:26;;;;;;;11.30;7.20;;;22.90;87.90;;;;;;5064432;28;20066;-65
2023/04/22 11:10:00;;;;;;;9.13;6.45;;;23.20;88.10;;;;;;5048035;28;20041;-66
2023/04/22 11:12:38;;;;;;;;;;;23.70;85.50;;;;;;5068530;28;20498;-63
2023/04/22 11:15:15;;;;;;;10.02;6.38;;;23.90;77.60;;;;;;5064726;28;20416;-64
2023/04/22 11:17:46;;;;;;;10.55;5.63;;;24.20;79.00;;;;;;5064366;28;20127;-65
2023/04/22 11:20:16;;;;;;;10.25;6.40;;;24.60;78.30;;;;;;5047652;28;20201;-62
2023/04/22 11:22:47;;;;;;;10.23;6.07;;;24.90;75.80;;;;;;5064399;28;20052;-64
2023/04/22 11:25:13;;;;;;;7.80;4.72;;;24.90;72.60;;;;;;5057731;28;20120;-62
2023/04/22 11:27:42;;;;;;;6.75;4.57;;;25.00;73.60;;;;;;5053701;28;20157;-63
2023/04/22 11:30:08;;;;;;;9.30;5.10;;;25.20;72.10;;;;;;5055327;28;20032;-62
2023/04/22 11:32:40;;;;;;;8.00;4.90;;;25.10;70.20;;;;;;5060362;28;20048;-63
2023/04/22 11:35:11;;;;;;;7.43;4.80;;;25.10;69.90;;;;;;5049880;28;20185;-62
2023/04/22 11:37:45;;;;;;;7.22;4.80;;;25.20;68.60;;;;;;5052006;28;20044;-62
2023/04/22 11:40:19;;;;;;;8.95;5.28;;;25.40;68.40;;;;;;5068006;28;20105;-62
2023/04/22 11:42:45;;;;;;;10.35;5.55;;;25.50;66.70;;;;;;5051207;28;20280;-62
2023/04/22 11:45:15;;;;;;;8.45;5.20;;;25.70;66.60;;;;;;5068636;28;20071;-62
2023/04/22 11:47:41;;;;;;;8.63;5.45;;;25.80;66.20;;;;;;5077049;28;20591;-62
2023/04/22 11:50:12;;;;;;;8.85;5.25;;;25.40;64.40;;;;;;5059285;28;20033;-62
2023/04/22 11:53:01;;;;;;;9.35;5.97;;;25.10;65.10;;;;;;5072207;28;20450;-62
2023/04/22 11:55:31;;;;;;;9.52;5.40;;;24.90;66.20;;;;;;5054025;28;20109;-63
2023/04/22 11:58:04;;;;;;;7.38;5.45;;;24.70;67.00;;;;;;5068642;28;20060;-62
2023/04/22 12:00:44;;;;;;;9.02;5.70;;;24.80;65.70;;;;;;5075156;28;20449;-63
2023/04/22 12:03:13;;;;;;;8.88;5.63;;;24.80;65.70;;;;;;5072964;28;20048;-64
2023/04/22 12:05:42;;;;;;;8.50;5.53;;;24.50;65.20;;;;;;5073426;28;20097;-62
2023/04/22 12:08:10;;;;;;;9.90;5.03;;;24.40;65.70;;;;;;5057076;28;20044;-63
2023/04/22 12:10:41;;;;;;;9.85;4.70;;;24.30;67.00;;;;;;5055694;28;20044;-63
2023/04/22 12:13:06;;;;;;;9.73;5.40;;;24.30;66.80;;;;;;5052849;28;20097;-63
2023/04/22 12:15:42;;;;;;;7.97;5.10;;;24.20;67.30;;;;;;5051788;28;20048;-65
2023/04/22 12:18:10;;;;;;;8.15;5.20;;;24.30;66.50;;;;;;5063563;28;20109;-64
2023/04/22 12:20:38;;;;;;;9.23;5.82;;;24.20;68.00;;;;;;5054512;28;20041;-67
2023/04/22 12:23:04;;;;;;;12.38;5.90;;;24.10;67.20;;;;;;5052239;28;20044;-63
2023/04/22 12:25:32;;;;;;;11.48;6.70;;;24.00;67.30;;;;;;5057907;28;20041;-68
2023/04/22 12:27:59;;;;;;;9.18;6.50;;;23.90;67.40;;;;;;5046850;28;20392;-63
2023/04/22 12:30:25;;;;;;;13.32;6.80;;;23.70;68.40;;;;;;5065315;28;20039;-64
2023/04/22 12:32:51;;;;;;;10.43;6.85;;;23.40;69.00;;;;;;5073633;28;20048;-62